sensor_id;sensor_type;location;lat;lon;timestamp;temperature;humidity
9965;DHT22;5023;53.554;9.964;2023-03-23T00:00:00;11.70;99.90
9965;DHT22;5023;53.554;9.964;2023-03-23T00:05:06;11.60;99.90
9965;DHT22;5023;53.554;9.964;2023-03-23T00:10:08;11.50;99.90
9965;DHT22;5023;53.554;9.964;2023-03-23T00:15:11;11.50;99.90
9965;DHT22;5023;53.554;9.964;2023-03-23T00:20:15;11.40;99.90
9965;DHT22;5023;53.554;9.964;2023-03-23T00:25:17;11.40;99.90
9965;DHT22;5023;53.554;9.964;2023-03-23T00:30:19;11.30;99.90
9965;DHT22;5023;53.554;9.964;2023-03-23T00:35:24;11.30;99.90
9965;DHT22;5023;53.554;9.964;2023-03-23T00:40:28;11.20;99.90
9965;DHT22;5023;53.554;9.964;2023-03-23T00:45:32;11.20;99.90
9965;DHT22;5023;53.554;9.964;2023-03-23T00:50:38;11.20;99.90
9965;DHT22;5023;53.554;9.964;2023-03-23T00:55:41;11.10;99.90
9965;DHT22;5023;53.554;9.964;2023-03-23T01:00:45;11.10;99.90
9965;DHT22;5023;53.554;9.964;2023-03-23T01:05:49;11.10;99.90
9965;DHT22;5023;53.554;9.964;2023-03-23T01:11:02;11.20;99.90
9965;DHT22;5023;53.554;9.964;2023-03-23T01:16:05;11.10;99.90
9965;DHT22;5023;53.554;9.964;2023-03-23T01:21:11;11.20;99.90
9965;DHT22;5023;53.554;9.964;2023-03-23T01:26:15;11.20;99.90
9965;DHT22;5023;53.554;9.964;2023-03-23T01:31:20;11.20;99.90
9965;DHT22;5023;53.554;9.964;2023-03-23T01:46:44;11.10;99.90
9965;DHT22;5023;53.554;9.964;2023-03-23T01:51:48;11.10;99.90
9965;DHT22;5023;53.554;9.964;2023-03-23T01:56:54;11.10;99.90
9965;DHT22;5023;53.554;9.964;2023-03-23T02:01:58;11.20;99.90
9965;DHT22;5023;53.554;9.964;2023-03-23T02:07:02;11.20;99.90
9965;DHT22;5023;53.554;9.964;2023-03-23T02:12:07;11.10;99.90
9965;DHT22;5023;53.554;9.964;2023-03-23T02:17:15;11.20;99.90
9965;DHT22;5023;53.554;9.964;2023-03-23T02:28:10;11.20;99.90
9965;DHT22;5023;53.554;9.964;2023-03-23T02:33:42;11.10;99.90
9965;DHT22;5023;53.554;9.964;2023-03-23T02:38:53;11.20;99.90
9965;DHT22;5023;53.554;9.964;2023-03-23T02:43:57;11.10;99.90
9965;DHT22;5023;53.554;9.964;2023-03-23T02:49:02;11.10;99.90
9965;DHT22;5023;53.554;9.964;2023-03-23T02:54:05;11.20;99.90
9965;DHT22;5023;53.554;9.964;2023-03-23T02:59:08;11.10;99.90
9965;DHT22;5023;53.554;9.964;2023-03-23T03:04:14;11.20;99.90
9965;DHT22;5023;53.554;9.964;2023-03-23T03:09:26;11.20;99.90
9965;DHT22;5023;53.554;9.964;2023-03-23T03:14:38;11.20;99.90
9965;DHT22;5023;53.554;9.964;2023-03-23T03:19:46;11.20;99.90
9965;DHT22;5023;53.554;9.964;2023-03-23T03:24:50;11.20;99.90
9965;DHT22;5023;53.554;9.964;2023-03-23T03:29:58;11.30;99.90
9965;DHT22;5023;53.554;9.964;2023-03-23T03:35:03;11.20;99.90
9965;DHT22;5023;53.554;9.964;2023-03-23T03:40:08;11.30;99.90
9965;DHT22;5023;53.554;9.964;2023-03-23T03:45:14;11.30;99.90
9965;DHT22;5023;53.554;9.964;2023-03-23T03:50:17;11.30;99.90
9965;DHT22;5023;53.554;9.964;2023-03-23T03:55:20;11.30;99.90
9965;DHT22;5023;53.554;9.964;2023-03-23T04:00:22;11.30;99.90
9965;DHT22;5023;53.554;9.964;2023-03-23T04:05:29;11.40;99.90
9965;DHT22;5023;53.554;9.964;2023-03-23T04:10:31;11.40;99.90
9965;DHT22;5023;53.554;9.964;2023-03-23T04:15:34;11.40;99.90
9965;DHT22;5023;53.554;9.964;2023-03-23T04:20:37;11.40;99.90
9965;DHT22;5023;53.554;9.964;2023-03-23T04:25:40;11.50;99.90
9965;DHT22;5023;53.554;9.964;2023-03-23T04:30:44;11.40;99.90
9965;DHT22;5023;53.554;9.964;2023-03-23T04:35:51;11.40;99.90
9965;DHT22;5023;53.554;9.964;2023-03-23T04:40:54;11.40;99.90
9965;DHT22;5023;53.554;9.964;2023-03-23T04:45:58;11.40;99.90
9965;DHT22;5023;53.554;9.964;2023-03-23T04:51:03;11.40;99.90
9965;DHT22;5023;53.554;9.964;2023-03-23T04:56:06;11.40;99.90
9965;DHT22;5023;53.554;9.964;2023-03-23T05:01:09;11.40;99.90
9965;DHT22;5023;53.554;9.964;2023-03-23T05:06:15;11.50;99.90
9965;DHT22;5023;53.554;9.964;2023-03-23T05:11:18;11.50;99.90
9965;DHT22;5023;53.554;9.964;2023-03-23T05:16:20;11.50;99.90
9965;DHT22;5023;53.554;9.964;2023-03-23T05:21:23;11.60;99.90
9965;DHT22;5023;53.554;9.964;2023-03-23T05:26:27;11.50;99.90
9965;DHT22;5023;53.554;9.964;2023-03-23T05:31:33;11.50;99.90
9965;DHT22;5023;53.554;9.964;2023-03-23T05:36:36;11.60;99.90
9965;DHT22;5023;53.554;9.964;2023-03-23T05:41:39;11.50;99.90
9965;DHT22;5023;53.554;9.964;2023-03-23T05:46:41;11.50;99.90
9965;DHT22;5023;53.554;9.964;2023-03-23T05:51:45;11.50;99.90
9965;DHT22;5023;53.554;9.964;2023-03-23T05:56:48;11.50;99.90
9965;DHT22;5023;53.554;9.964;2023-03-23T06:01:51;11.50;99.90
9965;DHT22;5023;53.554;9.964;2023-03-23T06:06:55;11.50;99.90
9965;DHT22;5023;53.554;9.964;2023-03-23T06:11:57;11.50;99.90
9965;DHT22;5023;53.554;9.964;2023-03-23T06:17:00;11.40;99.90
9965;DHT22;5023;53.554;9.964;2023-03-23T06:22:03;11.40;99.90
9965;DHT22;5023;53.554;9.964;2023-03-23T06:27:06;11.40;99.90
9965;DHT22;5023;53.554;9.964;2023-03-23T06:32:10;11.40;99.90
9965;DHT22;5023;53.554;9.964;2023-03-23T06:37:16;11.40;99.90
9965;DHT22;5023;53.554;9.964;2023-03-23T06:42:18;11.40;99.90
9965;DHT22;5023;53.554;9.964;2023-03-23T06:47:20;11.40;99.90
9965;DHT22;5023;53.554;9.964;2023-03-23T06:52:25;11.50;99.90
9965;DHT22;5023;53.554;9.964;2023-03-23T06:57:29;11.50;99.90
9965;DHT22;5023;53.554;9.964;2023-03-23T07:02:33;11.60;99.90
9965;DHT22;5023;53.554;9.964;2023-03-23T07:07:37;11.70;99.90
9965;DHT22;5023;53.554;9.964;2023-03-23T07:12:40;11.70;99.90
9965;DHT22;5023;53.554;9.964;2023-03-23T07:17:42;11.80;99.90
9965;DHT22;5023;53.554;9.964;2023-03-23T07:22:45;11.90;99.90
9965;DHT22;5023;53.554;9.964;2023-03-23T07:27:47;12.00;99.90
9965;DHT22;5023;53.554;9.964;2023-03-23T07:32:49;12.10;99.90
9965;DHT22;5023;53.554;9.964;2023-03-23T07:37:53;12.20;99.90
9965;DHT22;5023;53.554;9.964;2023-03-23T07:42:56;12.30;99.90
9965;DHT22;5023;53.554;9.964;2023-03-23T07:47:59;12.50;99.90
9965;DHT22;5023;53.554;9.964;2023-03-23T07:53:03;12.60;99.90
9965;DHT22;5023;53.554;9.964;2023-03-23T07:58:05;12.60;99.90
9965;DHT22;5023;53.554;9.964;2023-03-23T08:03:07;12.60;99.90
9965;DHT22;5023;53.554;9.964;2023-03-23T08:08:13;12.60;99.90
9965;DHT22;5023;53.554;9.964;2023-03-23T08:13:15;12.60;99.90
9965;DHT22;5023;53.554;9.964;2023-03-23T08:18:17;12.60;99.90
9965;DHT22;5023;53.554;9.964;2023-03-23T08:23:21;12.50;99.90
9965;DHT22;5023;53.554;9.964;2023-03-23T08:28:23;12.60;99.90
9965;DHT22;5023;53.554;9.964;2023-03-23T08:33:25;12.50;99.90
9965;DHT22;5023;53.554;9.964;2023-03-23T08:38:30;12.30;99.90
9965;DHT22;5023;53.554;9.964;2023-03-23T08:43:34;12.00;99.90
9965;DHT22;5023;53.554;9.964;2023-03-23T08:48:37;11.70;99.90
9965;DHT22;5023;53.554;9.964;2023-03-23T08:53:40;11.80;99.90
9965;DHT22;5023;53.554;9.964;2023-03-23T08:58:43;11.80;99.90
9965;DHT22;5023;53.554;9.964;2023-03-23T09:03:45;11.90;99.90
9965;DHT22;5023;53.554;9.964;2023-03-23T09:08:48;12.20;99.90
9965;DHT22;5023;53.554;9.964;2023-03-23T09:13:51;12.40;99.90
9965;DHT22;5023;53.554;9.964;2023-03-23T09:18:53;12.60;99.90
9965;DHT22;5023;53.554;9.964;2023-03-23T09:23:57;12.60;99.90
9965;DHT22;5023;53.554;9.964;2023-03-23T09:28:59;12.50;99.90
9965;DHT22;5023;53.554;9.964;2023-03-23T09:34:02;12.50;99.90
9965;DHT22;5023;53.554;9.964;2023-03-23T09:39:06;12.50;99.90
9965;DHT22;5023;53.554;9.964;2023-03-23T09:44:21;12.40;99.90
9965;DHT22;5023;53.554;9.964;2023-03-23T09:49:26;12.50;99.90
9965;DHT22;5023;53.554;9.964;2023-03-23T09:54:35;12.50;99.90
9965;DHT22;5023;53.554;9.964;2023-03-23T09:59:41;12.50;99.90
9965;DHT22;5023;53.554;9.964;2023-03-23T10:04:47;12.60;99.90
9965;DHT22;5023;53.554;9.964;2023-03-23T10:09:55;12.80;99.90
9965;DHT22;5023;53.554;9.964;2023-03-23T10:15:14;12.90;99.90
9965;DHT22;5023;53.554;9.964;2023-03-23T10:20:40;13.00;99.90
9965;DHT22;5023;53.554;9.964;2023-03-23T10:25:50;13.10;99.90
9965;DHT22;5023;53.554;9.964;2023-03-23T10:30:56;13.40;99.90
9965;DHT22;5023;53.554;9.964;2023-03-23T10:36:05;13.40;99.90
9965;DHT22;5023;53.554;9.964;2023-03-23T10:41:11;13.40;99.90
9965;DHT22;5023;53.554;9.964;2023-03-23T10:46:23;13.50;99.90
9965;DHT22;5023;53.554;9.964;2023-03-23T10:51:31;13.50;99.90
9965;DHT22;5023;53.554;9.964;2023-03-23T10:56:38;13.50;99.90
9965;DHT22;5023;53.554;9.964;2023-03-23T11:01:43;13.50;99.90
9965;DHT22;5023;53.554;9.964;2023-03-23T11:06:48;13.50;99.90
9965;DHT22;5023;53.554;9.964;2023-03-23T11:11:53;13.50;99.90
9965;DHT22;5023;53.554;9.964;2023-03-23T11:16:58;13.70;99.90
9965;DHT22;5023;53.554;9.964;2023-03-23T11:22:08;13.60;99.90
9965;DHT22;5023;53.554;9.964;2023-03-23T11:27:19;13.60;99.90
9965;DHT22;5023;53.554;9.964;2023-03-23T11:32:24;13.60;99.90
9965;DHT22;5023;53.554;9.964;2023-03-23T11:37:35;13.50;99.90
9965;DHT22;5023;53.554;9.964;2023-03-23T11:42:46;13.70;99.90
9965;DHT22;5023;53.554;9.964;2023-03-23T11:48:01;13.70;99.90
9965;DHT22;5023;53.554;9.964;2023-03-23T11:53:13;13.70;99.90
9965;DHT22;5023;53.554;9.964;2023-03-23T11:58:19;13.90;99.90
9965;DHT22;5023;53.554;9.964;2023-03-23T12:03:43;13.80;99.90
9965;DHT22;5023;53.554;9.964;2023-03-23T12:08:56;13.70;99.90
9965;DHT22;5023;53.554;9.964;2023-03-23T12:14:10;13.60;99.90
9965;DHT22;5023;53.554;9.964;2023-03-23T12:19:21;13.50;99.90
9965;DHT22;5023;53.554;9.964;2023-03-23T12:24:35;13.50;99.90
9965;DHT22;5023;53.554;9.964;2023-03-23T12:29:52;13.50;99.90
9965;DHT22;5023;53.554;9.964;2023-03-23T12:35:04;13.30;99.90
9965;DHT22;5023;53.554;9.964;2023-03-23T12:40:19;13.30;99.90
9965;DHT22;5023;53.554;9.964;2023-03-23T12:45:50;13.30;99.90
9965;DHT22;5023;53.554;9.964;2023-03-23T12:51:10;13.50;99.90
9965;DHT22;5023;53.554;9.964;2023-03-23T12:56:17;13.50;99.90
9965;DHT22;5023;53.554;9.964;2023-03-23T13:01:24;13.60;99.90
9965;DHT22;5023;53.554;9.964;2023-03-23T13:06:31;13.60;99.90
9965;DHT22;5023;53.554;9.964;2023-03-23T13:11:35;14.10;99.90
9965;DHT22;5023;53.554;9.964;2023-03-23T13:16:46;14.50;99.90
9965;DHT22;5023;53.554;9.964;2023-03-23T13:21:54;14.40;99.90
9965;DHT22;5023;53.554;9.964;2023-03-23T13:26:59;14.50;99.90
9965;DHT22;5023;53.554;9.964;2023-03-23T13:32:11;14.50;99.90
9965;DHT22;5023;53.554;9.964;2023-03-23T13:37:21;14.70;99.90
9965;DHT22;5023;53.554;9.964;2023-03-23T13:42:25;14.80;99.90
9965;DHT22;5023;53.554;9.964;2023-03-23T13:47:38;14.60;99.90
9965;DHT22;5023;53.554;9.964;2023-03-23T13:52:50;14.60;99.90
9965;DHT22;5023;53.554;9.964;2023-03-23T13:57:54;14.60;99.90
9965;DHT22;5023;53.554;9.964;2023-03-23T14:03:03;14.30;99.90
9965;DHT22;5023;53.554;9.964;2023-03-23T14:08:14;14.10;99.90
9965;DHT22;5023;53.554;9.964;2023-03-23T14:13:19;13.80;99.90
9965;DHT22;5023;53.554;9.964;2023-03-23T14:18:26;12.90;99.90
9965;DHT22;5023;53.554;9.964;2023-03-23T14:23:31;12.20;99.90
9965;DHT22;5023;53.554;9.964;2023-03-23T14:28:37;11.70;99.90
9965;DHT22;5023;53.554;9.964;2023-03-23T14:33:41;11.60;99.90
9965;DHT22;5023;53.554;9.964;2023-03-23T14:38:44;11.70;99.90
9965;DHT22;5023;53.554;9.964;2023-03-23T14:43:46;11.70;99.90
9965;DHT22;5023;53.554;9.964;2023-03-23T14:48:50;11.90;99.90
9965;DHT22;5023;53.554;9.964;2023-03-23T14:53:53;12.00;99.90
9965;DHT22;5023;53.554;9.964;2023-03-23T14:59:03;12.20;99.90
9965;DHT22;5023;53.554;9.964;2023-03-23T15:04:10;12.40;99.90
9965;DHT22;5023;53.554;9.964;2023-03-23T15:09:15;12.50;99.90
9965;DHT22;5023;53.554;9.964;2023-03-23T15:14:21;12.40;99.90
9965;DHT22;5023;53.554;9.964;2023-03-23T15:19:28;12.50;99.90
9965;DHT22;5023;53.554;9.964;2023-03-23T15:24:37;12.50;99.90
9965;DHT22;5023;53.554;9.964;2023-03-23T15:29:49;12.60;99.90
9965;DHT22;5023;53.554;9.964;2023-03-23T15:35:13;12.70;99.90
9965;DHT22;5023;53.554;9.964;2023-03-23T15:40:22;12.80;99.90
9965;DHT22;5023;53.554;9.964;2023-03-23T15:45:27;12.90;99.90
9965;DHT22;5023;53.554;9.964;2023-03-23T15:50:34;13.00;99.90
9965;DHT22;5023;53.554;9.964;2023-03-23T15:55:38;12.90;99.90
9965;DHT22;5023;53.554;9.964;2023-03-23T16:00:41;12.90;99.90
9965;DHT22;5023;53.554;9.964;2023-03-23T16:05:53;12.80;99.90
9965;DHT22;5023;53.554;9.964;2023-03-23T16:10:57;12.80;99.90
9965;DHT22;5023;53.554;9.964;2023-03-23T16:15:59;12.90;99.90
9965;DHT22;5023;53.554;9.964;2023-03-23T16:21:04;12.80;99.90
9965;DHT22;5023;53.554;9.964;2023-03-23T16:26:07;12.80;99.90
9965;DHT22;5023;53.554;9.964;2023-03-23T16:31:10;12.90;99.90
9965;DHT22;5023;53.554;9.964;2023-03-23T16:36:14;12.90;99.90
9965;DHT22;5023;53.554;9.964;2023-03-23T16:41:18;13.00;99.90
9965;DHT22;5023;53.554;9.964;2023-03-23T16:46:20;12.90;99.90
9965;DHT22;5023;53.554;9.964;2023-03-23T16:51:27;12.80;99.90
9965;DHT22;5023;53.554;9.964;2023-03-23T16:56:41;12.60;99.90
9965;DHT22;5023;53.554;9.964;2023-03-23T17:01:46;12.60;99.90
9965;DHT22;5023;53.554;9.964;2023-03-23T17:06:50;12.50;99.90
9965;DHT22;5023;53.554;9.964;2023-03-23T17:12:02;12.40;99.90
9965;DHT22;5023;53.554;9.964;2023-03-23T17:17:04;12.40;99.90
9965;DHT22;5023;53.554;9.964;2023-03-23T17:22:08;12.40;99.90
9965;DHT22;5023;53.554;9.964;2023-03-23T17:27:10;12.30;99.90
9965;DHT22;5023;53.554;9.964;2023-03-23T17:32:13;12.30;99.90
9965;DHT22;5023;53.554;9.964;2023-03-23T17:37:16;12.30;99.90
9965;DHT22;5023;53.554;9.964;2023-03-23T17:42:18;12.20;99.90
9965;DHT22;5023;53.554;9.964;2023-03-23T17:47:20;12.30;99.90
9965;DHT22;5023;53.554;9.964;2023-03-23T17:52:25;12.20;99.90
9965;DHT22;5023;53.554;9.964;2023-03-23T17:57:28;12.10;99.90
9965;DHT22;5023;53.554;9.964;2023-03-23T18:02:32;12.10;99.90
9965;DHT22;5023;53.554;9.964;2023-03-23T18:07:35;12.00;99.90
9965;DHT22;5023;53.554;9.964;2023-03-23T18:12:38;12.00;99.90
9965;DHT22;5023;53.554;9.964;2023-03-23T18:17:40;12.00;99.90
9965;DHT22;5023;53.554;9.964;2023-03-23T18:22:46;11.90;99.90
9965;DHT22;5023;53.554;9.964;2023-03-23T18:27:48;11.90;99.90
9965;DHT22;5023;53.554;9.964;2023-03-23T18:32:50;11.80;99.90
9965;DHT22;5023;53.554;9.964;2023-03-23T18:37:54;11.80;99.90
9965;DHT22;5023;53.554;9.964;2023-03-23T18:42:56;11.70;99.90
9965;DHT22;5023;53.554;9.964;2023-03-23T18:48:00;11.70;99.90
9965;DHT22;5023;53.554;9.964;2023-03-23T18:53:04;11.70;99.90
9965;DHT22;5023;53.554;9.964;2023-03-23T18:58:06;11.70;99.90
9965;DHT22;5023;53.554;9.964;2023-03-23T19:03:08;11.70;99.90
9965;DHT22;5023;53.554;9.964;2023-03-23T19:08:12;11.60;99.90
9965;DHT22;5023;53.554;9.964;2023-03-23T19:13:14;11.60;99.90
9965;DHT22;5023;53.554;9.964;2023-03-23T19:18:16;11.60;99.90
9965;DHT22;5023;53.554;9.964;2023-03-23T19:23:22;11.60;99.90
9965;DHT22;5023;53.554;9.964;2023-03-23T19:28:24;11.60;99.90
9965;DHT22;5023;53.554;9.964;2023-03-23T19:33:27;11.60;99.90
9965;DHT22;5023;53.554;9.964;2023-03-23T19:38:30;11.60;99.90
9965;DHT22;5023;53.554;9.964;2023-03-23T19:43:32;11.60;99.90
9965;DHT22;5023;53.554;9.964;2023-03-23T19:48:34;11.60;99.90
9965;DHT22;5023;53.554;9.964;2023-03-23T19:53:38;11.60;99.90
9965;DHT22;5023;53.554;9.964;2023-03-23T19:58:41;11.60;99.90
9965;DHT22;5023;53.554;9.964;2023-03-23T20:03:43;11.50;99.90
9965;DHT22;5023;53.554;9.964;2023-03-23T20:08:47;11.50;99.90
9965;DHT22;5023;53.554;9.964;2023-03-23T20:13:53;11.50;99.90
9965;DHT22;5023;53.554;9.964;2023-03-23T20:18:56;11.50;99.90
9965;DHT22;5023;53.554;9.964;2023-03-23T20:23:59;11.50;99.90
9965;DHT22;5023;53.554;9.964;2023-03-23T20:29:02;11.40;99.90
9965;DHT22;5023;53.554;9.964;2023-03-23T20:34:06;11.30;99.90
9965;DHT22;5023;53.554;9.964;2023-03-23T20:39:16;11.40;99.90
9965;DHT22;5023;53.554;9.964;2023-03-23T20:44:21;11.40;99.90
9965;DHT22;5023;53.554;9.964;2023-03-23T20:49:25;11.40;99.90
9965;DHT22;5023;53.554;9.964;2023-03-23T20:54:29;11.40;99.90
9965;DHT22;5023;53.554;9.964;2023-03-23T20:59:32;11.40;99.90
9965;DHT22;5023;53.554;9.964;2023-03-23T21:04:35;11.40;99.90
9965;DHT22;5023;53.554;9.964;2023-03-23T21:09:44;11.30;99.90
9965;DHT22;5023;53.554;9.964;2023-03-23T21:14:46;11.30;99.90
9965;DHT22;5023;53.554;9.964;2023-03-23T21:19:48;11.30;99.90
9965;DHT22;5023;53.554;9.964;2023-03-23T21:24:52;11.30;99.90
9965;DHT22;5023;53.554;9.964;2023-03-23T21:29:56;11.30;99.90
9965;DHT22;5023;53.554;9.964;2023-03-23T21:35:00;11.40;99.90
9965;DHT22;5023;53.554;9.964;2023-03-23T21:40:07;11.40;99.90
9965;DHT22;5023;53.554;9.964;2023-03-23T21:45:14;11.30;99.90
9965;DHT22;5023;53.554;9.964;2023-03-23T21:50:18;11.30;99.90
9965;DHT22;5023;53.554;9.964;2023-03-23T21:55:23;11.40;99.90
9965;DHT22;5023;53.554;9.964;2023-03-23T22:00:29;11.40;99.90
9965;DHT22;5023;53.554;9.964;2023-03-23T22:05:32;11.50;99.90
9965;DHT22;5023;53.554;9.964;2023-03-23T22:10:38;11.50;99.90
9965;DHT22;5023;53.554;9.964;2023-03-23T22:15:41;11.50;99.90
9965;DHT22;5023;53.554;9.964;2023-03-23T22:20:43;11.50;99.90
9965;DHT22;5023;53.554;9.964;2023-03-23T22:25:48;11.40;99.90
9965;DHT22;5023;53.554;9.964;2023-03-23T22:30:51;11.40;99.90
9965;DHT22;5023;53.554;9.964;2023-03-23T22:35:53;11.40;99.90
9965;DHT22;5023;53.554;9.964;2023-03-23T22:40:57;11.30;99.90
9965;DHT22;5023;53.554;9.964;2023-03-23T22:46:01;11.30;99.90
9965;DHT22;5023;53.554;9.964;2023-03-23T22:51:03;11.30;99.90
9965;DHT22;5023;53.554;9.964;2023-03-23T22:56:08;11.20;99.90
9965;DHT22;5023;53.554;9.964;2023-03-23T23:01:13;11.20;99.90
9965;DHT22;5023;53.554;9.964;2023-03-23T23:06:16;11.20;99.90
9965;DHT22;5023;53.554;9.964;2023-03-23T23:11:23;11.20;99.90
9965;DHT22;5023;53.554;9.964;2023-03-23T23:16:26;11.20;99.90
9965;DHT22;5023;53.554;9.964;2023-03-23T23:21:28;11.20;99.90
9965;DHT22;5023;53.554;9.964;2023-03-23T23:26:32;11.20;99.90
9965;DHT22;5023;53.554;9.964;2023-03-23T23:31:34;11.10;99.90
9965;DHT22;5023;53.554;9.964;2023-03-23T23:36:36;11.20;99.90
9965;DHT22;5023;53.554;9.964;2023-03-23T23:41:41;11.20;99.90
9965;DHT22;5023;53.554;9.964;2023-03-23T23:46:43;11.20;99.90
9965;DHT22;5023;53.554;9.964;2023-03-23T23:51:46;11.20;99.90
9965;DHT22;5023;53.554;9.964;2023-03-23T23:56:50;11.30;99.90
